San Gennaro — IIOT2 — position and weather

sailwx.info

Track history (hours):
 
Tides and Currents Weather Stations Pressure Air Temp Water Temp Dewpoint Dewpoint Depression Visibility Wind Speed Wind Dir Waves Ship Positions

San Gennaro

Last reported at 2015-Jul-30 15:26 UTC. Time now 2015-Jul-31 03:04 UTC.
Position N 40°50' E 014°16'.

Length 27 m; draft 5.2 m.

Type: Tug. MMSI: 247295700.

Date/timePositionNaut miles runAvg speedWind from/ knotsBaromVisibWave heightAir tempDewpointWater temp
2015-Jul-30 15:26N 40°50' E 014°16'0 0.0
2015-Jul-30 12:26N 40°50' E 014°16'9 9.4
2015-Jul-30 11:31N 40°45' E 014°25'7 3.5
2015-Jul-30 09:32N 40°49' E 014°18'1 0.7
2015-Jul-30 08:34N 40°49' E 014°18'2 0.7
2015-Jul-30 05:34N 40°51' E 014°16'0 0.0
2015-Jul-29 09:28N 40°50' E 014°16'0 0.0
2015-Jul-29 08:33N 40°50' E 014°16'0 0.4
2015-Jul-29 07:33N 40°50' E 014°17'1 0.1
2015-Jul-28 20:18N 40°51' E 014°16'0 0.0
2015-Jul-28 18:27N 40°51' E 014°16'0 0.4
2015-Jul-28 17:33N 40°51' E 014°16'0 0.1
2015-Jul-28 14:32N 40°50' E 014°16'1 0.9
2015-Jul-28 13:34N 40°50' E 014°18'0 0.1
2015-Jul-28 08:33N 40°50' E 014°17'1 0.1
2015-Jul-27 23:12N 40°51' E 014°16'0 0.0
2015-Jul-27 21:19N 40°51' E 014°16'1 0.4
2015-Jul-27 19:18N 40°50' E 014°17'1 0.2
2015-Jul-27 15:24N 40°51' E 014°16'0 0.0
2015-Jul-26 03:19N 40°51' E 014°16'0 0.0
2015-Jul-26 02:22N 40°51' E 014°16'0 0.0
2015-Jul-26 01:30N 40°51' E 014°16'1 0.5
2015-Jul-25 22:33N 40°50' E 014°18'1 0.2
2015-Jul-25 20:31N 40°50' E 014°17'1 0.0
2015-Jul-25 00:23N 40°51' E 014°16'0 0.0
2015-Jul-24 23:22N 40°51' E 014°16'0 0.2
2015-Jul-24 22:19N 40°50' E 014°16'1 1.3
2015-Jul-24 21:33N 40°50' E 014°17'1 0.1
2015-Jul-24 16:25N 40°50' E 014°16'0 0.2
2015-Jul-24 15:18N 40°50' E 014°16'0 0.3
2015-Jul-24 14:19N 40°51' E 014°16'0 0.3
2015-Jul-24 13:11N 40°51' E 014°16'0 0.1
2015-Jul-24 10:14N 40°50' E 014°16'1 0.8
2015-Jul-24 09:33N 40°50' E 014°17'1 0.5
2015-Jul-24 08:30N 40°50' E 014°18'0 0.0
2015-Jul-24 07:32N 40°50' E 014°18'1 0.6
2015-Jul-24 05:11N 40°51' E 014°16'0 0.0
2015-Jul-24 04:08N 40°51' E 014°16'1 0.2
2015-Jul-23 23:33N 40°50' E 014°17'1 0.7
2015-Jul-23 22:27N 40°51' E 014°16'0 0.0
2015-Jul-23 21:17N 40°51' E 014°16'  
2015-Jul-20 16:33N 40°50' E 014°18'  
Track history (hours):
 
Tides and Currents Weather Stations Pressure Air Temp Water Temp Dewpoint Dewpoint Depression Visibility Wind Speed Wind Dir Waves Ship Positions

San Gennaro

Last reported at 2015-Jul-30 15:26 UTC. Time now 2015-Jul-31 03:04 UTC.
Position N 40°50' E 014°16'.

Length 27 m; draft 5.2 m.

Type: Tug. MMSI: 247295700.

Date/timePositionNaut miles runAvg speedWind from/ knotsBaromVisibWave heightAir tempDewpointWater temp
2015-Jul-30 15:26N 40°50' E 014°16'0 0.0
2015-Jul-30 12:26N 40°50' E 014°16'9 9.4
2015-Jul-30 11:31N 40°45' E 014°25'7 3.5
2015-Jul-30 09:32N 40°49' E 014°18'1 0.7
2015-Jul-30 08:34N 40°49' E 014°18'2 0.7
2015-Jul-30 05:34N 40°51' E 014°16'0 0.0
2015-Jul-29 09:28N 40°50' E 014°16'0 0.0
2015-Jul-29 08:33N 40°50' E 014°16'0 0.4
2015-Jul-29 07:33N 40°50' E 014°17'1 0.1
2015-Jul-28 20:18N 40°51' E 014°16'0 0.0
2015-Jul-28 18:27N 40°51' E 014°16'0 0.4
2015-Jul-28 17:33N 40°51' E 014°16'0 0.1
2015-Jul-28 14:32N 40°50' E 014°16'1 0.9
2015-Jul-28 13:34N 40°50' E 014°18'0 0.1
2015-Jul-28 08:33N 40°50' E 014°17'1 0.1
2015-Jul-27 23:12N 40°51' E 014°16'0 0.0
2015-Jul-27 21:19N 40°51' E 014°16'1 0.4
2015-Jul-27 19:18N 40°50' E 014°17'1 0.2
2015-Jul-27 15:24N 40°51' E 014°16'0 0.0
2015-Jul-26 03:19N 40°51' E 014°16'0 0.0
2015-Jul-26 02:22N 40°51' E 014°16'0 0.0
2015-Jul-26 01:30N 40°51' E 014°16'1 0.5
2015-Jul-25 22:33N 40°50' E 014°18'1 0.2
2015-Jul-25 20:31N 40°50' E 014°17'1 0.0
2015-Jul-25 00:23N 40°51' E 014°16'0 0.0
2015-Jul-24 23:22N 40°51' E 014°16'0 0.2
2015-Jul-24 22:19N 40°50' E 014°16'1 1.3
2015-Jul-24 21:33N 40°50' E 014°17'1 0.1
2015-Jul-24 16:25N 40°50' E 014°16'0 0.2
2015-Jul-24 15:18N 40°50' E 014°16'0 0.3
2015-Jul-24 14:19N 40°51' E 014°16'0 0.3
2015-Jul-24 13:11N 40°51' E 014°16'0 0.1
2015-Jul-24 10:14N 40°50' E 014°16'1 0.8
2015-Jul-24 09:33N 40°50' E 014°17'1 0.5
2015-Jul-24 08:30N 40°50' E 014°18'0 0.0
2015-Jul-24 07:32N 40°50' E 014°18'1 0.6
2015-Jul-24 05:11N 40°51' E 014°16'0 0.0
2015-Jul-24 04:08N 40°51' E 014°16'1 0.2
2015-Jul-23 23:33N 40°50' E 014°17'1 0.7
2015-Jul-23 22:27N 40°51' E 014°16'0 0.0
2015-Jul-23 21:17N 40°51' E 014°16'  
2015-Jul-20 16:33N 40°50' E 014°18'  

Dump ship's entire track history